Sault Sainte Marie, MI

12:33 AM EDT on May 26, 2015 (GMT -0400)
Sault Ste Marie Municipal / Sanderson Field | | Change Station
CLOSE
Current Station
Airport
Location: Sault Ste Marie,
Elevation: 715 ft
Nearby Weather Stations

Elev 715 ft 46.48 °N, 84.36 °W | Updated 38 minutes ago

Overcast
Overcast
61 °F
Feels Like 61 °F
N
7
Wind Variable Wind from WSW

Today
High -- | Low -- °F
--% Chance of Precip.
Yesterday
High -- | Low -- °F
Precip. -- in
5:52 AM 9:16 PM
First Quarter, 54% visible
Pressure 29.80 in
Visibility 10.0 miles
Clouds Few 4100 ft
Overcast 7500 ft
Dew Point 58 °F
Humidity 90%
Rainfall 0.85 in
Snow Depth Not available.
UV 0 out of 12
Pollen 1.00 out of 12
Air Quality Not available.
Flu Activity Sporadic
METAR KANJ 260355Z AUTO 24006KT 10SM FEW041 OVC075 16/14 A2980 RMK AO2 SLP090 T01610144

More Conditions Fewer Conditions

Pressure 29.80 in
Visibility 10.0 miles
Clouds Few 4100 ft
Overcast 7500 ft
Dew Point 58 °F
Humidity 90%
Rainfall 0.85 in
Snow Depth Not available.
UV 0 out of 12
Pollen 1.00 out of 12
Air Quality Not available.
Flu Activity Sporadic
METAR KANJ 260355Z AUTO 24006KT 10SM FEW041 OVC075 16/14 A2980 RMK AO2 SLP090 T01610144

More Conditions Fewer Conditions

Nowcast | as of 11:00 PM EDT on May 25, 2015

At 12 am...mostly cloudy. Chance of showers and slight chance of thunderstorms. Temperature 58. Southwest winds 6 mph. At 2 am...mostly cloudy. Chance of showers and slight chance of thunderstorms. Temperature 57. Southwest winds 6 mph. At 4 am...mostly cloudy. Chance of showers and slight chance of thunderstorms. Temperature 56. Southwest winds 6 mph. At 6 am...mostly cloudy. Scattered showers. Temperature 55. Southwest winds 6 mph.

×

10-Day Weather Forecast

Almanac

Astronomy

May. 26, 2015 Rise Set
Actual Time
Civil Twilight
Nautical Twilight
Astronomical Twilight
Moon
Length of Visible Light
Length of Day
Tomorrow will be .
, % of the Moon is Illuminated

Today's Extremes

State Highs State Lows

Community

WunderPhotos

Upload Photos

1,824,278 photos uploaded!

WunderBlogs® & News

Nearby

Air Quality

  Air Quality AQ Index Pollutant
Not available.

Snow Depth

Station Depth Elevation

Earthquake Activity

City Distance Mag. Time & Date
Minimum magnitude displayed is 2.5.

Coastal Water Temperatures

Place Temperature

Stations

Nearby Weather Stations

Station Location Temp. Windchill Dew Point Humidity Wind Precip. Elev Updated Type